createdAt,value
2022-12-15T00:02:42.347Z,34.50
2022-12-15T00:05:29.211Z,34.40
2022-12-15T00:08:15.507Z,34.10
2022-12-15T00:11:02.108Z,33.10
2022-12-15T00:16:35.305Z,32.70
2022-12-15T00:19:22.519Z,32.70
2022-12-15T00:22:09.965Z,32.40
2022-12-15T00:24:56.671Z,32.30
2022-12-15T00:27:43.073Z,31.80
2022-12-15T00:30:29.942Z,33.50
2022-12-15T00:33:17.302Z,34.10
2022-12-15T00:36:03.908Z,33.50
2022-12-15T00:38:41.810Z,33.40
2022-12-15T00:41:10.695Z,33.80
2022-12-15T00:43:38.688Z,34.40
2022-12-15T00:46:26.133Z,32.90
2022-12-15T00:48:54.273Z,34.00
2022-12-15T00:51:22.215Z,34.60
2022-12-15T00:54:11.937Z,32.80
2022-12-15T00:57:02.848Z,33.70
2022-12-15T00:59:49.435Z,33.50
2022-12-15T01:02:36.030Z,34.40
2022-12-15T01:08:09.743Z,33.10
2022-12-15T01:10:56.554Z,31.90
2022-12-15T01:13:42.769Z,32.20
2022-12-15T01:16:32.499Z,31.80
2022-12-15T01:19:18.983Z,31.10
2022-12-15T01:21:46.619Z,33.50
2022-12-15T01:24:14.185Z,35.10
2022-12-15T01:26:41.889Z,35.70
2022-12-15T01:29:09.579Z,36.20
2022-12-15T01:31:37.237Z,33.40
2022-12-15T01:34:05.013Z,35.40
2022-12-15T01:36:33.264Z,34.50
2022-12-15T01:39:01.385Z,34.10
2022-12-15T01:41:30.021Z,33.90
2022-12-15T01:44:16.996Z,32.80
2022-12-15T01:46:44.846Z,31.30
2022-12-15T01:49:25.093Z,33.20
2022-12-15T01:51:55.713Z,33.10
2022-12-15T01:54:24.488Z,31.60
2022-12-15T01:56:56.550Z,30.60
2022-12-15T01:59:28.189Z,30.70
2022-12-15T02:01:55.964Z,30.50
2022-12-15T02:04:24.518Z,30.80
2022-12-15T02:06:53.262Z,30.90
2022-12-15T02:09:21.517Z,30.50
2022-12-15T02:11:49.235Z,30.20
2022-12-15T02:14:37.025Z,30.30
2022-12-15T02:17:07.484Z,30.00
2022-12-15T02:19:53.711Z,29.10
2022-12-15T02:22:33.837Z,29.40
2022-12-15T02:25:10.543Z,30.10
2022-12-15T02:28:07.586Z,27.90
2022-12-15T02:30:41.251Z,29.60
2022-12-15T02:33:08.855Z,30.30
2022-12-15T02:35:42.564Z,29.90
2022-12-15T02:38:10.355Z,31.50
2022-12-15T02:40:38.001Z,31.80
2022-12-15T02:43:06.790Z,31.10
2022-12-15T02:45:54.885Z,32.10
2022-12-15T02:48:40.644Z,32.80
2022-12-15T02:51:27.183Z,32.30
2022-12-15T02:54:15.266Z,32.40
2022-12-15T02:57:04.113Z,32.20
2022-12-15T02:59:43.710Z,32.40
2022-12-15T03:02:13.323Z,33.80
2022-12-15T03:04:42.656Z,34.00
2022-12-15T03:07:10.495Z,33.40
2022-12-15T03:09:38.249Z,33.90
2022-12-15T03:12:06.321Z,33.90
2022-12-15T03:14:33.928Z,33.90
2022-12-15T03:17:01.773Z,33.60
2022-12-15T03:19:29.621Z,34.60
2022-12-15T03:21:57.172Z,34.10
2022-12-15T03:24:24.941Z,34.70
2022-12-15T03:26:53.409Z,33.60
2022-12-15T03:29:21.080Z,34.40
2022-12-15T03:31:49.964Z,34.90
2022-12-15T03:34:18.107Z,34.60
2022-12-15T03:36:45.907Z,35.50
2022-12-15T03:39:13.874Z,34.80
2022-12-15T03:41:41.819Z,35.80
2022-12-15T03:44:09.912Z,33.80
2022-12-15T03:46:37.675Z,35.30
2022-12-15T03:49:05.513Z,35.10
2022-12-15T03:51:33.099Z,36.30
2022-12-15T03:54:01.373Z,35.90
2022-12-15T03:56:29.320Z,34.90
2022-12-15T03:58:58.323Z,37.30
2022-12-15T04:01:29.126Z,37.10
2022-12-15T04:04:00.849Z,36.90
2022-12-15T04:06:30.125Z,38.50
2022-12-15T04:08:57.988Z,37.50
2022-12-15T04:11:26.211Z,37.60
2022-12-15T04:13:54.571Z,34.40
2022-12-15T04:16:22.417Z,34.90
2022-12-15T04:19:10.116Z,36.90
2022-12-15T04:21:37.985Z,36.90
2022-12-15T04:24:25.221Z,35.60
2022-12-15T04:27:11.431Z,35.30
2022-12-15T04:29:58.001Z,35.00
2022-12-15T04:32:44.966Z,32.60
2022-12-15T04:35:37.189Z,34.90
2022-12-15T04:43:56.721Z,33.70
2022-12-15T04:46:43.242Z,34.60
2022-12-15T04:49:29.577Z,34.90
2022-12-15T04:52:16.692Z,35.20
2022-12-15T04:55:02.918Z,35.80
2022-12-15T04:57:49.527Z,34.40
2022-12-15T05:00:36.186Z,34.70
2022-12-15T05:03:26.490Z,33.60
2022-12-15T05:06:12.795Z,34.50
2022-12-15T05:08:59.457Z,35.00
2022-12-15T05:11:45.956Z,33.20
2022-12-15T05:14:32.248Z,34.70
2022-12-15T05:17:18.746Z,34.20
2022-12-15T05:20:05.076Z,34.40
2022-12-15T05:22:51.629Z,33.10
2022-12-15T05:25:38.237Z,34.00
2022-12-15T05:28:25.551Z,32.50
2022-12-15T05:31:12.178Z,32.90
2022-12-15T05:33:39.993Z,31.60
2022-12-15T05:36:08.254Z,33.20
2022-12-15T05:38:35.913Z,33.50
2022-12-15T05:41:03.694Z,35.10
2022-12-15T05:43:31.652Z,33.90
2022-12-15T05:46:03.883Z,35.00
2022-12-15T05:48:31.763Z,34.20
2022-12-15T05:51:02.904Z,33.70
2022-12-15T05:53:30.829Z,31.80
2022-12-15T05:56:02.793Z,32.40
2022-12-15T05:58:30.649Z,33.30
2022-12-15T06:01:06.208Z,44.00
2022-12-15T06:03:34.825Z,50.80
2022-12-15T06:06:03.545Z,52.60
2022-12-15T06:08:33.153Z,56.80
2022-12-15T06:11:01.201Z,56.00
2022-12-15T06:13:31.841Z,56.40
2022-12-15T06:16:05.227Z,56.00
2022-12-15T06:18:34.767Z,48.70
2022-12-15T06:21:04.663Z,38.50
2022-12-15T06:23:35.156Z,35.70
2022-12-15T06:26:23.824Z,33.10
2022-12-15T06:28:52.426Z,32.80
2022-12-15T06:31:23.059Z,31.20
2022-12-15T06:33:54.751Z,31.20
2022-12-15T06:36:29.110Z,30.20
2022-12-15T06:39:00.931Z,28.50
2022-12-15T06:41:32.750Z,29.30
2022-12-15T06:44:01.121Z,28.90
2022-12-15T06:46:30.298Z,28.90
2022-12-15T06:48:58.368Z,26.00
2022-12-15T06:51:26.461Z,26.60
2022-12-15T06:53:55.361Z,26.60
2022-12-15T06:56:33.010Z,26.90
2022-12-15T06:59:02.404Z,27.70
2022-12-15T07:01:30.973Z,25.70
2022-12-15T07:04:03.350Z,24.80
2022-12-15T07:06:36.865Z,25.50
2022-12-15T07:09:07.384Z,25.70
2022-12-15T07:11:35.608Z,26.00
2022-12-15T07:14:03.671Z,26.30
2022-12-15T07:16:31.400Z,25.70
2022-12-15T07:18:59.422Z,24.40
2022-12-15T07:21:27.160Z,25.00
2022-12-15T07:23:56.829Z,23.80
2022-12-15T07:26:25.753Z,24.50
2022-12-15T07:28:54.230Z,25.10
2022-12-15T07:31:23.024Z,25.40
2022-12-15T07:33:53.044Z,24.70
2022-12-15T07:36:21.538Z,24.40
2022-12-15T07:38:50.564Z,23.70
2022-12-15T07:41:19.408Z,24.80
2022-12-15T07:43:47.862Z,23.50
2022-12-15T07:46:16.379Z,25.20
2022-12-15T07:48:44.230Z,26.20
2022-12-15T07:51:20.286Z,24.30
2022-12-15T07:53:50.271Z,26.10
2022-12-15T07:56:18.582Z,26.20
2022-12-15T07:58:47.525Z,25.00
2022-12-15T08:01:15.879Z,26.50
2022-12-15T08:03:45.214Z,23.90
2022-12-15T08:06:14.302Z,24.30
2022-12-15T08:08:43.752Z,22.60
2022-12-15T08:11:12.448Z,24.40
2022-12-15T08:16:29.343Z,23.60
2022-12-15T08:18:57.406Z,22.70
2022-12-15T08:21:25.740Z,22.40
2022-12-15T08:23:53.494Z,21.60
2022-12-15T08:26:25.238Z,21.90
2022-12-15T08:29:11.720Z,21.60
2022-12-15T08:31:45.804Z,22.30
2022-12-15T08:34:13.505Z,22.60
2022-12-15T08:36:41.882Z,22.30
2022-12-15T08:39:09.841Z,21.90
2022-12-15T08:41:37.511Z,20.40
2022-12-15T08:44:05.479Z,20.90
2022-12-15T08:46:34.492Z,19.50
2022-12-15T08:49:03.546Z,19.10
2022-12-15T08:51:32.347Z,19.60
2022-12-15T08:54:01.131Z,18.80
2022-12-15T08:56:29.408Z,19.50
2022-12-15T08:58:58.360Z,19.10
2022-12-15T09:01:27.205Z,19.90
2022-12-15T09:03:56.178Z,17.70
2022-12-15T09:06:25.685Z,15.30
2022-12-15T09:08:54.775Z,13.30
2022-12-15T09:11:23.459Z,13.10
2022-12-15T09:13:51.194Z,12.00
2022-12-15T09:16:19.547Z,13.30
2022-12-15T09:18:48.984Z,13.70
2022-12-15T09:21:16.868Z,13.10
2022-12-15T09:23:47.824Z,13.50
2022-12-15T09:26:15.967Z,14.30
2022-12-15T09:28:44.046Z,15.70
2022-12-15T09:31:29.009Z,14.60
2022-12-15T09:33:59.778Z,14.40
2022-12-15T09:36:27.741Z,15.20
2022-12-15T09:38:55.420Z,15.10
2022-12-15T09:41:28.272Z,13.50
2022-12-15T09:44:01.008Z,13.80
2022-12-15T09:46:44.098Z,13.80
2022-12-15T09:49:29.940Z,15.90
2022-12-15T09:52:08.851Z,15.60
2022-12-15T09:54:41.880Z,13.70
2022-12-15T09:57:15.739Z,14.40
2022-12-15T10:00:02.676Z,13.10
2022-12-15T10:02:30.772Z,12.70
2022-12-15T10:05:13.593Z,12.50
2022-12-15T10:07:46.595Z,13.30
2022-12-15T10:12:57.598Z,12.60
2022-12-15T10:15:38.848Z,13.30
2022-12-15T10:18:13.145Z,12.70
2022-12-15T10:20:43.030Z,14.80
2022-12-15T10:23:13.031Z,14.10
2022-12-15T10:25:45.951Z,14.00
2022-12-15T10:28:17.285Z,13.50
2022-12-15T10:30:49.725Z,13.60
2022-12-15T10:33:20.192Z,13.20
2022-12-15T10:35:48.571Z,13.60
2022-12-15T10:38:17.356Z,14.20
2022-12-15T10:40:50.250Z,13.90
2022-12-15T10:43:37.783Z,14.80
2022-12-15T10:46:09.069Z,13.50
2022-12-15T10:48:37.725Z,15.50
2022-12-15T10:51:38.327Z,13.80
2022-12-15T10:54:07.216Z,14.60
2022-12-15T10:56:35.033Z,14.00
2022-12-15T10:59:22.293Z,13.70
2022-12-15T11:01:50.803Z,13.10
2022-12-15T11:04:29.280Z,15.90
2022-12-15T11:07:01.955Z,14.10
2022-12-15T11:09:29.796Z,14.10
2022-12-15T11:12:16.186Z,15.50
2022-12-15T11:14:44.294Z,14.60
2022-12-15T11:17:18.105Z,15.10
2022-12-15T11:20:02.216Z,13.20
2022-12-15T11:22:42.832Z,14.90
2022-12-15T11:25:29.447Z,13.70
2022-12-15T11:27:58.114Z,14.00
2022-12-15T11:30:35.095Z,14.10
2022-12-15T11:33:03.322Z,13.10
2022-12-15T11:35:46.277Z,13.90
2022-12-15T11:38:21.222Z,14.40
2022-12-15T11:40:50.552Z,15.00
2022-12-15T11:43:36.753Z,13.00
2022-12-15T11:46:07.652Z,13.70
2022-12-15T11:48:41.850Z,14.20
2022-12-15T11:51:17.757Z,13.90
2022-12-15T11:53:55.205Z,14.70
2022-12-15T11:56:42.583Z,13.70
2022-12-15T11:59:22.792Z,14.30
2022-12-15T12:02:09.548Z,13.80
2022-12-15T12:04:37.222Z,14.20
2022-12-15T12:07:04.918Z,14.30
2022-12-15T12:09:37.391Z,12.70
2022-12-15T12:12:05.542Z,13.40
2022-12-15T12:14:41.415Z,13.50
2022-12-15T12:17:18.303Z,14.00
2022-12-15T12:19:51.305Z,14.60
2022-12-15T12:22:19.145Z,14.40
2022-12-15T12:24:59.196Z,14.60
2022-12-15T12:27:27.661Z,20.50
2022-12-15T12:30:02.105Z,16.90
2022-12-15T12:32:40.507Z,15.60
2022-12-15T12:35:33.467Z,14.50
2022-12-15T12:38:04.501Z,13.70
2022-12-15T12:40:33.026Z,14.00
2022-12-15T12:43:04.391Z,15.00
2022-12-15T12:45:37.584Z,15.90
2022-12-15T12:48:14.618Z,14.80
2022-12-15T12:50:42.880Z,14.60
2022-12-15T12:53:25.798Z,13.60
2022-12-15T12:55:54.893Z,15.10
2022-12-15T12:58:39.953Z,15.50
2022-12-15T13:01:10.809Z,14.30
2022-12-15T13:03:39.885Z,14.50
2022-12-15T13:06:21.679Z,14.00
2022-12-15T13:08:51.573Z,15.30
2022-12-15T13:11:45.263Z,15.00
2022-12-15T13:14:21.059Z,14.20
2022-12-15T13:17:24.873Z,18.40
2022-12-15T13:19:58.945Z,18.50
2022-12-15T13:22:26.815Z,18.10
2022-12-15T13:24:56.098Z,20.20
2022-12-15T13:27:24.062Z,17.60
2022-12-15T13:30:00.941Z,16.00
2022-12-15T13:34:58.647Z,14.70
2022-12-15T13:37:49.107Z,14.60
2022-12-15T13:40:23.536Z,15.00
2022-12-15T13:42:58.870Z,14.50
2022-12-15T13:45:36.622Z,15.00
2022-12-15T13:48:13.699Z,13.60
2022-12-15T13:50:51.311Z,13.90
2022-12-15T13:53:22.315Z,14.60
2022-12-15T13:55:56.783Z,15.90
2022-12-15T13:58:26.060Z,15.20
2022-12-15T14:00:55.136Z,15.30
2022-12-15T14:03:23.453Z,15.10
2022-12-15T14:05:56.361Z,14.80
2022-12-15T14:08:26.073Z,16.10
2022-12-15T14:10:57.306Z,17.60
2022-12-15T14:13:26.504Z,15.70
2022-12-15T14:16:00.035Z,15.40
2022-12-15T14:18:32.845Z,15.10
2022-12-15T14:21:02.304Z,14.40
2022-12-15T14:23:38.732Z,14.50
2022-12-15T14:26:08.055Z,14.30
2022-12-15T14:28:36.840Z,14.10
2022-12-15T14:31:06.447Z,15.50
2022-12-15T14:33:37.215Z,15.20
2022-12-15T14:36:07.356Z,15.10
2022-12-15T14:38:44.175Z,13.20
2022-12-15T14:43:41.444Z,12.90
2022-12-15T14:46:11.762Z,13.90
2022-12-15T14:48:42.433Z,12.30
2022-12-15T14:51:13.440Z,12.30
2022-12-15T14:53:42.531Z,13.00
2022-12-15T14:56:15.107Z,13.50
2022-12-15T14:58:43.685Z,13.40
2022-12-15T15:01:22.865Z,12.70
2022-12-15T15:04:01.218Z,13.30
2022-12-15T15:06:31.545Z,13.20
2022-12-15T15:09:06.898Z,13.70
2022-12-15T15:11:39.788Z,13.50
2022-12-15T15:14:17.124Z,13.00
2022-12-15T15:16:45.234Z,11.80
2022-12-15T15:19:16.957Z,13.20
2022-12-15T15:21:46.097Z,14.60
2022-12-15T15:24:14.463Z,14.00
2022-12-15T15:26:43.393Z,13.50
2022-12-15T15:29:37.748Z,14.00
2022-12-15T15:32:08.045Z,15.60
2022-12-15T15:34:36.031Z,16.90
2022-12-15T15:37:06.354Z,17.90
2022-12-15T15:39:34.119Z,15.50
2022-12-15T15:42:09.765Z,15.90
2022-12-15T15:44:37.733Z,15.60
2022-12-15T15:47:06.466Z,15.60
2022-12-15T15:49:37.896Z,13.60
2022-12-15T15:52:09.468Z,15.10
2022-12-15T15:54:37.429Z,13.30
2022-12-15T15:57:05.253Z,14.60
2022-12-15T15:59:34.449Z,13.80
2022-12-15T16:02:03.519Z,15.20
2022-12-15T16:04:32.025Z,15.30
2022-12-15T16:07:01.841Z,15.80
2022-12-15T16:09:30.320Z,16.20
2022-12-15T16:11:59.715Z,16.00
2022-12-15T16:14:27.579Z,16.90
2022-12-15T16:16:55.650Z,21.30
2022-12-15T16:19:25.886Z,23.30
2022-12-15T16:21:55.869Z,22.00
2022-12-15T16:24:24.267Z,22.10
2022-12-15T16:26:52.181Z,21.90
2022-12-15T16:29:21.132Z,20.10
2022-12-15T16:31:49.877Z,19.70
2022-12-15T16:34:19.242Z,22.80
2022-12-15T16:36:47.784Z,22.00
2022-12-15T16:39:27.336Z,33.60
2022-12-15T16:41:56.442Z,32.90
2022-12-15T16:44:25.522Z,32.00
2022-12-15T16:46:54.057Z,31.80
2022-12-15T16:49:23.107Z,34.40
2022-12-15T16:51:52.907Z,32.80
2022-12-15T16:54:24.429Z,28.70
2022-12-15T16:56:54.375Z,25.20
2022-12-15T16:59:39.157Z,23.20
2022-12-15T17:02:26.115Z,20.20
2022-12-15T17:04:55.554Z,18.90
2022-12-15T17:07:25.226Z,17.90
2022-12-15T17:09:53.226Z,17.00
2022-12-15T17:12:21.295Z,16.60
2022-12-15T17:14:49.878Z,15.10
2022-12-15T17:17:19.512Z,15.10
2022-12-15T17:22:38.466Z,14.50
2022-12-15T17:25:07.509Z,15.10
2022-12-15T17:27:35.621Z,18.30
2022-12-15T17:30:03.910Z,15.90
2022-12-15T17:32:32.078Z,17.40
2022-12-15T17:35:00.254Z,17.90
2022-12-15T17:37:34.894Z,17.60
2022-12-15T17:40:14.820Z,16.30
2022-12-15T17:42:43.193Z,15.10
2022-12-15T17:45:22.057Z,14.10
2022-12-15T17:47:51.314Z,15.90
2022-12-15T17:50:19.488Z,16.60
2022-12-15T17:52:48.810Z,17.40
2022-12-15T17:55:23.378Z,16.30
2022-12-15T17:57:53.733Z,16.90
2022-12-15T18:00:32.016Z,17.10
2022-12-15T18:03:01.516Z,16.10
2022-12-15T18:05:31.360Z,17.40
2022-12-15T18:08:02.678Z,18.60
2022-12-15T18:10:36.726Z,17.00
2022-12-15T18:13:14.367Z,16.00
2022-12-15T18:15:43.989Z,18.60
2022-12-15T18:18:12.808Z,18.30
2022-12-15T18:20:41.494Z,19.20
2022-12-15T18:23:16.729Z,19.90
2022-12-15T18:25:45.135Z,21.20
2022-12-15T18:28:23.003Z,23.60
2022-12-15T18:30:52.655Z,23.40
2022-12-15T18:33:22.115Z,26.70
2022-12-15T18:35:50.905Z,26.60
2022-12-15T18:38:18.972Z,29.00
2022-12-15T18:40:48.285Z,27.80
2022-12-15T18:43:26.789Z,29.00
2022-12-15T18:45:55.205Z,27.10
2022-12-15T18:48:24.464Z,25.00
2022-12-15T18:50:53.464Z,23.70
2022-12-15T18:53:32.004Z,26.00
2022-12-15T18:56:01.799Z,30.10
2022-12-15T18:58:31.708Z,28.00
2022-12-15T19:01:01.557Z,32.20
2022-12-15T19:03:30.363Z,29.00
2022-12-15T19:06:26.093Z,26.70
2022-12-15T19:08:54.571Z,22.80
2022-12-15T19:11:31.263Z,22.60
2022-12-15T19:16:47.810Z,25.10
2022-12-15T19:19:34.596Z,27.00
2022-12-15T19:22:27.347Z,29.10
2022-12-15T19:24:55.832Z,30.70
2022-12-15T19:27:26.859Z,27.90
2022-12-15T19:29:55.144Z,26.10
2022-12-15T19:32:23.409Z,26.20
2022-12-15T19:34:52.016Z,24.80
2022-12-15T19:37:28.245Z,24.60
2022-12-15T19:39:57.663Z,29.40
2022-12-15T19:42:33.698Z,28.10
2022-12-15T19:45:02.301Z,28.60
2022-12-15T19:47:30.189Z,29.90
2022-12-15T19:49:58.231Z,30.70
2022-12-15T19:52:26.816Z,31.00
2022-12-15T19:54:54.883Z,34.40
2022-12-15T19:57:23.284Z,31.10
2022-12-15T19:59:51.954Z,32.60
2022-12-15T20:02:22.784Z,32.10
2022-12-15T20:04:51.728Z,38.60
2022-12-15T20:07:29.003Z,30.80
2022-12-15T20:09:58.461Z,32.70
2022-12-15T20:12:27.725Z,36.10
2022-12-15T20:14:55.625Z,33.70
2022-12-15T20:17:23.698Z,32.70
2022-12-15T20:19:52.297Z,33.60
2022-12-15T20:22:21.857Z,32.30
2022-12-15T20:24:50.620Z,34.00
2022-12-15T20:27:20.158Z,31.10
2022-12-15T20:29:48.445Z,31.00
2022-12-15T20:32:19.201Z,31.50
2022-12-15T20:34:48.384Z,33.70
2022-12-15T20:37:19.648Z,31.90
2022-12-15T20:39:49.439Z,29.80
2022-12-15T20:42:22.239Z,28.60
2022-12-15T20:44:50.398Z,29.30
2022-12-15T20:47:24.564Z,28.20
2022-12-15T20:49:54.437Z,27.00
2022-12-15T20:52:24.799Z,30.90
2022-12-15T20:54:56.140Z,28.70
2022-12-15T20:57:24.376Z,30.30
2022-12-15T20:59:52.635Z,31.10
2022-12-15T21:02:22.318Z,40.50
2022-12-15T21:04:51.363Z,43.60
2022-12-15T21:07:20.026Z,57.10
2022-12-15T21:09:48.514Z,42.10
2022-12-15T21:12:21.290Z,35.40
2022-12-15T21:14:49.453Z,27.40
2022-12-15T21:17:18.758Z,25.10
2022-12-15T21:19:46.821Z,25.80
2022-12-15T21:22:17.746Z,28.20
2022-12-15T21:24:46.043Z,32.10
2022-12-15T21:27:17.715Z,33.50
2022-12-15T21:29:52.345Z,33.40
2022-12-15T21:32:21.356Z,33.40
2022-12-15T21:34:51.803Z,35.40
2022-12-15T21:37:23.269Z,35.90
2022-12-15T21:39:52.085Z,32.80
2022-12-15T21:42:21.374Z,34.60
2022-12-15T21:44:49.339Z,34.80
2022-12-15T21:47:17.409Z,43.30
2022-12-15T21:49:45.374Z,39.00
2022-12-15T21:52:13.452Z,39.10
2022-12-15T21:54:41.169Z,37.40
2022-12-15T21:57:11.342Z,37.50
2022-12-15T21:59:39.165Z,39.50
2022-12-15T22:02:26.490Z,39.70
2022-12-15T22:04:55.251Z,38.40
2022-12-15T22:07:23.377Z,42.40
2022-12-15T22:09:51.928Z,41.00
2022-12-15T22:12:21.492Z,45.60
2022-12-15T22:14:49.628Z,43.10
2022-12-15T22:17:19.031Z,41.50
2022-12-15T22:19:47.929Z,39.20
2022-12-15T22:22:16.766Z,43.20
2022-12-15T22:24:44.658Z,38.00
2022-12-15T22:27:20.129Z,40.00
2022-12-15T22:29:49.538Z,39.40
2022-12-15T22:32:17.805Z,39.70
2022-12-15T22:34:45.764Z,40.10
2022-12-15T22:37:13.730Z,39.30
2022-12-15T22:39:46.976Z,39.40
2022-12-15T22:42:16.872Z,40.60
2022-12-15T22:44:45.211Z,42.00
2022-12-15T22:47:13.062Z,40.20
2022-12-15T22:49:41.242Z,40.10
2022-12-15T22:52:20.073Z,40.70
2022-12-15T22:54:48.100Z,38.50
2022-12-15T22:57:23.898Z,36.70
2022-12-15T23:00:11.804Z,38.80
2022-12-15T23:02:43.437Z,36.50
2022-12-15T23:05:16.571Z,37.80
2022-12-15T23:07:45.096Z,40.10
2022-12-15T23:10:32.269Z,40.40
2022-12-15T23:13:00.348Z,38.50
2022-12-15T23:15:47.329Z,41.10
2022-12-15T23:18:15.321Z,43.70
2022-12-15T23:20:43.232Z,43.80
2022-12-15T23:23:13.736Z,46.50
2022-12-15T23:25:41.439Z,49.70
2022-12-15T23:28:09.435Z,48.50
2022-12-15T23:30:37.195Z,47.60
2022-12-15T23:33:05.280Z,50.90
2022-12-15T23:35:32.941Z,51.40
2022-12-15T23:38:00.704Z,51.70
2022-12-15T23:40:28.363Z,54.70
2022-12-15T23:42:56.036Z,46.90
2022-12-15T23:45:23.661Z,53.50
2022-12-15T23:47:52.163Z,55.70
2022-12-15T23:50:22.281Z,55.10
2022-12-15T23:52:51.735Z,56.80
2022-12-15T23:55:19.936Z,55.80
2022-12-15T23:57:47.723Z,53.80
